Cleveland, Ohio
Traffic Map
Current Weather Conditions
Cleveland, Ohio
Clear
Clear
-5°
Feels Like: -10°
Wind Chill: -10° Ceiling: Unl
Heat Index: -5° Visibility: 10mi
Dew Point: -11° Wind: 7mph
Humidity: 63% Direction: 160° (SSE)
Pressure: 30.4in Gusts: 0mph
Raw Report DataKBKL 030353Z 16006KT 10SM CLR M05/M11 A3040 RMK AO2 SLP303 T10501111
Traffic Incident Summary
Active as of:
Severity:
Category:
InformationThere was an issue retrieving the traffic information for this location. Please try a different location or try again shortly.
Advertisements
Track Severe Weather on mobile